Terminal Aerodrome Forecast
Issued by NWS

Home | Current Version | Previous Version | Text Only | Print | Product List | Glossary On
Versions: 1 2 3 4 5 6 7 8 9 10 11 12 13
612
FTUS44 KTSA 070527
TAFMLC
TAF
KMLC 070527Z 0706/0806 23003KT P6SM FEW070
     FM071500 23012KT P6SM SCT250
     FM072200 29011G19KT P6SM SCT250=

USA.gov is the U.S. government's official web portal to all federal, state and local government web resources and services.